createdAt,value
2023-03-24T00:03:25.786Z,99.77
2023-03-24T00:08:31.803Z,100.00
2023-03-24T00:13:38.407Z,100.00
2023-03-24T00:18:43.065Z,100.00
2023-03-24T00:23:47.923Z,100.00
2023-03-24T00:28:53.670Z,100.00
2023-03-24T00:33:59.058Z,100.00
2023-03-24T00:39:03.885Z,100.00
2023-03-24T00:44:18.005Z,100.00
2023-03-24T00:49:42.063Z,100.00
2023-03-24T00:54:47.809Z,100.00
2023-03-24T00:59:56.218Z,100.00
2023-03-24T01:05:02.337Z,100.00
2023-03-24T01:10:08.580Z,100.00
2023-03-24T01:15:16.824Z,100.00
2023-03-24T01:20:23.066Z,100.00
2023-03-24T01:25:29.273Z,100.00
2023-03-24T01:30:35.070Z,100.00
2023-03-24T01:35:39.883Z,100.00
2023-03-24T01:40:46.598Z,100.00
2023-03-24T01:45:59.103Z,100.00
2023-03-24T01:51:06.541Z,100.00
2023-03-24T01:56:11.770Z,100.00
2023-03-24T02:01:20.497Z,100.00
2023-03-24T02:06:41.579Z,100.00
2023-03-24T02:11:46.304Z,100.00
2023-03-24T02:17:04.116Z,100.00
2023-03-24T02:22:37.245Z,100.00
2023-03-24T02:27:52.494Z,100.00
2023-03-24T02:33:20.008Z,100.00
2023-03-24T02:38:57.230Z,100.00
2023-03-24T02:44:07.841Z,100.00
2023-03-24T02:49:22.607Z,100.00
2023-03-24T02:54:33.319Z,100.00
2023-03-24T02:59:42.242Z,100.00
2023-03-24T03:05:13.940Z,100.00
2023-03-24T03:10:23.086Z,100.00
2023-03-24T03:15:33.729Z,100.00
2023-03-24T03:20:42.989Z,100.00
2023-03-24T03:25:51.621Z,100.00
2023-03-24T03:31:00.055Z,100.00
2023-03-24T03:36:08.206Z,100.00
2023-03-24T03:41:12.647Z,100.00
2023-03-24T03:46:19.342Z,100.00
2023-03-24T03:51:25.864Z,100.00
2023-03-24T03:56:34.913Z,100.00
2023-03-24T04:01:54.837Z,100.00
2023-03-24T04:07:15.047Z,100.00
2023-03-24T04:12:35.613Z,100.00
2023-03-24T04:18:16.873Z,100.00
2023-03-24T04:23:40.322Z,100.00
2023-03-24T04:28:52.412Z,100.00
2023-03-24T04:34:03.454Z,100.00
2023-03-24T04:39:13.187Z,100.00
2023-03-24T04:44:23.356Z,100.00
2023-03-24T04:49:53.247Z,100.00
2023-03-24T04:54:57.982Z,100.00
2023-03-24T05:00:08.404Z,100.00
2023-03-24T05:05:14.782Z,100.00
2023-03-24T05:10:25.556Z,100.00
2023-03-24T05:15:32.919Z,100.00
2023-03-24T05:21:00.076Z,100.00
2023-03-24T05:26:05.252Z,100.00
2023-03-24T05:31:17.958Z,100.00
2023-03-24T05:36:28.593Z,100.00
2023-03-24T05:41:35.703Z,100.00
2023-03-24T05:46:40.151Z,100.00
2023-03-24T05:51:46.505Z,100.00
2023-03-24T05:56:51.821Z,100.00
2023-03-24T06:02:11.485Z,100.00
2023-03-24T06:07:30.678Z,100.00
2023-03-24T06:12:35.852Z,100.00
2023-03-24T06:17:42.809Z,100.00
2023-03-24T06:23:00.161Z,100.00
2023-03-24T06:28:12.340Z,100.00
2023-03-24T06:33:18.208Z,100.00
2023-03-24T06:38:24.451Z,100.00
2023-03-24T06:43:29.017Z,100.00
2023-03-24T06:48:33.721Z,100.00
2023-03-24T06:53:45.702Z,100.00
2023-03-24T06:58:51.580Z,100.00
2023-03-24T07:04:03.164Z,100.00
2023-03-24T07:09:18.894Z,100.00
2023-03-24T07:14:26.127Z,100.00
2023-03-24T07:19:32.356Z,100.00
2023-03-24T07:24:58.356Z,100.00
2023-03-24T07:30:20.556Z,100.00
2023-03-24T07:35:28.997Z,100.00
2023-03-24T07:40:35.571Z,100.00
2023-03-24T07:45:39.529Z,100.00
2023-03-24T07:50:43.911Z,100.00
2023-03-24T07:56:09.843Z,100.00
2023-03-24T08:01:21.242Z,100.00
2023-03-24T08:06:26.934Z,100.00
2023-03-24T08:11:35.837Z,100.00
2023-03-24T08:16:39.903Z,100.00
2023-03-24T08:21:43.823Z,100.00
2023-03-24T08:26:49.149Z,100.00
2023-03-24T08:31:53.316Z,100.00
2023-03-24T08:36:57.470Z,100.00
2023-03-24T08:42:02.962Z,97.15
2023-03-24T08:47:06.880Z,96.44
2023-03-24T08:52:11.199Z,94.42
2023-03-24T08:57:16.697Z,94.86
2023-03-24T09:02:20.818Z,92.86
2023-03-24T09:07:25.119Z,91.38
2023-03-24T09:12:30.602Z,87.64
2023-03-24T09:17:35.287Z,86.08
2023-03-24T09:22:40.282Z,85.70
2023-03-24T09:27:47.650Z,83.26
2023-03-24T09:32:51.583Z,84.02
2023-03-24T09:37:56.160Z,82.89
2023-03-24T09:43:05.444Z,83.22
2023-03-24T09:48:13.784Z,80.81
2023-03-24T09:53:29.066Z,79.61
2023-03-24T09:58:35.891Z,80.31
2023-03-24T10:03:40.399Z,79.11
2023-03-24T10:08:45.905Z,81.58
2023-03-24T10:14:03.133Z,80.33
2023-03-24T10:19:18.053Z,79.19
2023-03-24T10:24:28.715Z,76.86
2023-03-24T10:29:35.684Z,74.99
2023-03-24T10:34:40.585Z,73.83
2023-03-24T10:39:45.396Z,74.47
2023-03-24T10:44:52.232Z,74.88
2023-03-24T10:49:59.428Z,74.97
2023-03-24T10:55:06.654Z,73.58
2023-03-24T11:00:23.680Z,70.89
2023-03-24T11:05:30.965Z,71.62
2023-03-24T11:10:34.958Z,69.24
2023-03-24T11:15:53.339Z,68.90
2023-03-24T11:21:01.005Z,67.75
2023-03-24T11:26:10.664Z,67.29
2023-03-24T11:31:24.803Z,64.31
2023-03-24T11:36:50.302Z,63.34
2023-03-24T11:42:03.163Z,62.89
2023-03-24T11:47:12.017Z,63.50
2023-03-24T11:52:23.270Z,59.10
2023-03-24T11:57:40.644Z,59.53
2023-03-24T12:02:56.756Z,58.83
2023-03-24T12:08:37.144Z,58.76
2023-03-24T12:13:43.215Z,58.12
2023-03-24T12:19:19.452Z,56.27
2023-03-24T12:24:34.618Z,56.61
2023-03-24T12:29:52.151Z,55.06
2023-03-24T12:35:07.071Z,54.02
2023-03-24T12:40:39.818Z,53.66
2023-03-24T12:45:45.424Z,53.88
2023-03-24T12:50:59.065Z,54.57
2023-03-24T12:56:09.493Z,53.37
2023-03-24T13:01:20.521Z,54.53
2023-03-24T13:06:29.312Z,55.59
2023-03-24T13:11:41.321Z,55.15
2023-03-24T13:16:46.822Z,56.48
2023-03-24T13:21:52.569Z,56.68
2023-03-24T13:27:05.575Z,57.17
2023-03-24T13:32:15.463Z,58.22
2023-03-24T13:37:22.752Z,58.85
2023-03-24T13:42:33.005Z,59.63
2023-03-24T13:47:50.761Z,60.56
2023-03-24T13:52:56.081Z,61.26
2023-03-24T13:58:10.513Z,62.63
2023-03-24T14:03:18.949Z,63.58
2023-03-24T14:08:36.113Z,63.51
2023-03-24T14:13:48.679Z,65.57
2023-03-24T14:18:52.803Z,69.22
2023-03-24T14:23:59.790Z,69.68
2023-03-24T14:29:05.210Z,72.68
2023-03-24T14:34:14.886Z,75.67
2023-03-24T14:39:27.645Z,79.22
2023-03-24T14:44:55.825Z,77.55
2023-03-24T14:50:01.299Z,79.41
2023-03-24T14:55:08.277Z,81.89
2023-03-24T15:00:18.965Z,83.77
2023-03-24T15:05:30.051Z,82.96
2023-03-24T15:10:38.084Z,82.87
2023-03-24T15:15:49.099Z,81.40
2023-03-24T15:20:54.030Z,82.97
2023-03-24T15:25:58.481Z,85.67
2023-03-24T15:31:04.170Z,93.01
2023-03-24T15:36:16.766Z,93.35
2023-03-24T15:41:23.459Z,93.81
2023-03-24T15:46:30.525Z,92.19
2023-03-24T15:51:49.192Z,94.72
2023-03-24T15:57:17.422Z,100.00
2023-03-24T16:02:29.128Z,100.00
2023-03-24T16:07:34.341Z,100.00
2023-03-24T16:12:39.054Z,100.00
2023-03-24T16:17:44.729Z,100.00
2023-03-24T16:22:48.987Z,100.00
2023-03-24T16:27:53.090Z,100.00
2023-03-24T16:32:58.855Z,100.00
2023-03-24T16:38:02.919Z,100.00
2023-03-24T16:43:07.064Z,100.00
2023-03-24T16:48:13.026Z,100.00
2023-03-24T16:53:17.233Z,100.00
2023-03-24T16:58:21.585Z,100.00
2023-03-24T17:03:30.021Z,100.00
2023-03-24T17:08:34.624Z,100.00
2023-03-24T17:13:38.525Z,100.00
2023-03-24T17:18:44.256Z,100.00
2023-03-24T17:23:50.233Z,100.00
2023-03-24T17:28:54.375Z,100.00
2023-03-24T17:34:03.786Z,100.00
2023-03-24T17:39:16.764Z,100.00
2023-03-24T17:44:21.002Z,100.00
2023-03-24T17:49:26.487Z,100.00
2023-03-24T17:54:30.491Z,100.00
2023-03-24T17:59:37.307Z,100.00
2023-03-24T18:04:42.570Z,100.00
2023-03-24T18:09:46.676Z,100.00
2023-03-24T18:14:50.584Z,100.00
2023-03-24T18:19:56.498Z,100.00
2023-03-24T18:25:03.835Z,100.00
2023-03-24T18:30:09.697Z,100.00
2023-03-24T18:35:17.201Z,100.00
2023-03-24T18:40:21.591Z,100.00
2023-03-24T18:45:25.802Z,100.00
2023-03-24T18:50:31.338Z,100.00
2023-03-24T18:55:35.244Z,100.00
2023-03-24T19:00:39.788Z,100.00
2023-03-24T19:05:46.934Z,100.00
2023-03-24T19:10:51.067Z,100.00
2023-03-24T19:15:55.498Z,100.00
2023-03-24T19:21:02.044Z,100.00
2023-03-24T19:26:06.629Z,100.00
2023-03-24T19:31:14.733Z,100.00
2023-03-24T19:36:20.601Z,100.00
2023-03-24T19:41:26.382Z,100.00
2023-03-24T19:46:30.422Z,100.00
2023-03-24T19:51:35.879Z,100.00
2023-03-24T19:56:40.031Z,100.00
2023-03-24T20:01:44.580Z,100.00
2023-03-24T20:06:49.855Z,100.00
2023-03-24T20:11:54.695Z,100.00
2023-03-24T20:16:58.861Z,100.00
2023-03-24T20:22:04.438Z,100.00
2023-03-24T20:27:08.799Z,100.00
2023-03-24T20:32:13.732Z,100.00
2023-03-24T20:37:19.128Z,100.00
2023-03-24T20:42:24.654Z,100.00
2023-03-24T20:47:29.111Z,100.00
2023-03-24T20:52:35.971Z,100.00
2023-03-24T20:57:40.436Z,100.00
2023-03-24T21:02:45.565Z,100.00
2023-03-24T21:07:51.701Z,100.00
2023-03-24T21:12:55.660Z,100.00
2023-03-24T21:18:00.014Z,100.00
2023-03-24T21:23:09.520Z,100.00
2023-03-24T21:28:13.763Z,100.00
2023-03-24T21:33:17.661Z,100.00
2023-03-24T21:38:23.356Z,100.00
2023-03-24T21:43:29.291Z,100.00
2023-03-24T21:48:35.083Z,100.00
2023-03-24T21:53:40.755Z,100.00
2023-03-24T21:58:44.969Z,100.00
2023-03-24T22:03:50.786Z,100.00
2023-03-24T22:08:58.319Z,100.00
2023-03-24T22:14:02.692Z,100.00
2023-03-24T22:19:08.982Z,100.00
2023-03-24T22:24:14.646Z,100.00
2023-03-24T22:29:19.083Z,100.00
2023-03-24T22:34:23.359Z,100.00
2023-03-24T22:39:28.874Z,100.00
2023-03-24T22:44:33.853Z,100.00
2023-03-24T22:49:37.894Z,100.00
2023-03-24T22:54:43.541Z,100.00
2023-03-24T22:59:48.117Z,100.00
2023-03-24T23:04:55.131Z,100.00
2023-03-24T23:10:00.491Z,100.00
2023-03-24T23:15:05.628Z,100.00
2023-03-24T23:20:12.054Z,100.00
2023-03-24T23:25:19.115Z,100.00
2023-03-24T23:30:23.628Z,100.00
2023-03-24T23:35:27.899Z,100.00
2023-03-24T23:40:33.610Z,100.00
2023-03-24T23:45:37.963Z,100.00
2023-03-24T23:50:46.441Z,100.00
2023-03-24T23:55:57.005Z,100.00
